sensor_id;sensor_type;location;lat;lon;timestamp;temperature;humidity
52159;DHT22;38145;53.182;6.284;2023-04-09T00:01:17;8.70;99.90
52159;DHT22;38145;53.182;6.284;2023-04-09T00:03:52;8.70;99.90
52159;DHT22;38145;53.182;6.284;2023-04-09T00:06:23;8.70;99.90
52159;DHT22;38145;53.182;6.284;2023-04-09T00:08:51;8.70;99.90
52159;DHT22;38145;53.182;6.284;2023-04-09T00:11:20;8.70;99.90
52159;DHT22;38145;53.182;6.284;2023-04-09T00:13:48;8.70;99.90
52159;DHT22;38145;53.182;6.284;2023-04-09T00:16:16;8.70;99.90
52159;DHT22;38145;53.182;6.284;2023-04-09T00:18:44;8.70;99.90
52159;DHT22;38145;53.182;6.284;2023-04-09T00:21:15;8.70;99.90
52159;DHT22;38145;53.182;6.284;2023-04-09T00:23:42;8.60;99.90
52159;DHT22;38145;53.182;6.284;2023-04-09T00:26:13;8.60;99.90
52159;DHT22;38145;53.182;6.284;2023-04-09T00:28:42;8.60;99.90
52159;DHT22;38145;53.182;6.284;2023-04-09T00:31:09;8.60;99.90
52159;DHT22;38145;53.182;6.284;2023-04-09T00:33:37;8.60;99.90
52159;DHT22;38145;53.182;6.284;2023-04-09T00:36:03;8.50;99.90
52159;DHT22;38145;53.182;6.284;2023-04-09T00:38:30;8.60;99.90
52159;DHT22;38145;53.182;6.284;2023-04-09T00:40:57;8.50;99.90
52159;DHT22;38145;53.182;6.284;2023-04-09T00:43:26;8.50;99.90
52159;DHT22;38145;53.182;6.284;2023-04-09T00:45:54;8.50;99.90
52159;DHT22;38145;53.182;6.284;2023-04-09T00:48:21;8.50;99.90
52159;DHT22;38145;53.182;6.284;2023-04-09T00:50:48;8.50;99.90
52159;DHT22;38145;53.182;6.284;2023-04-09T00:53:18;8.60;99.90
52159;DHT22;38145;53.182;6.284;2023-04-09T00:55:45;8.50;99.90
52159;DHT22;38145;53.182;6.284;2023-04-09T00:58:12;8.50;99.90
52159;DHT22;38145;53.182;6.284;2023-04-09T01:00:42;8.50;99.90
52159;DHT22;38145;53.182;6.284;2023-04-09T01:03:13;8.50;99.90
52159;DHT22;38145;53.182;6.284;2023-04-09T01:05:52;8.50;99.90
52159;DHT22;38145;53.182;6.284;2023-04-09T01:11:35;8.40;99.90
52159;DHT22;38145;53.182;6.284;2023-04-09T01:14:23;8.50;99.90
52159;DHT22;38145;53.182;6.284;2023-04-09T01:16:56;8.40;99.90
52159;DHT22;38145;53.182;6.284;2023-04-09T01:19:50;8.40;99.90
52159;DHT22;38145;53.182;6.284;2023-04-09T01:22:23;8.50;99.90
52159;DHT22;38145;53.182;6.284;2023-04-09T01:24:59;8.50;99.90
52159;DHT22;38145;53.182;6.284;2023-04-09T01:27:43;8.40;99.90
52159;DHT22;38145;53.182;6.284;2023-04-09T01:30:15;8.40;99.90
52159;DHT22;38145;53.182;6.284;2023-04-09T01:32:44;8.40;99.90
52159;DHT22;38145;53.182;6.284;2023-04-09T01:35:11;8.40;99.90
52159;DHT22;38145;53.182;6.284;2023-04-09T01:37:40;8.40;99.90
52159;DHT22;38145;53.182;6.284;2023-04-09T01:40:06;8.40;99.90
52159;DHT22;38145;53.182;6.284;2023-04-09T01:42:35;8.40;99.90
52159;DHT22;38145;53.182;6.284;2023-04-09T01:45:02;8.40;99.90
52159;DHT22;38145;53.182;6.284;2023-04-09T01:47:32;8.40;99.90
52159;DHT22;38145;53.182;6.284;2023-04-09T01:49:58;8.40;99.90
52159;DHT22;38145;53.182;6.284;2023-04-09T01:52:27;8.40;99.90
52159;DHT22;38145;53.182;6.284;2023-04-09T01:54:54;8.40;99.90
52159;DHT22;38145;53.182;6.284;2023-04-09T01:57:22;8.40;99.90
52159;DHT22;38145;53.182;6.284;2023-04-09T01:59:50;8.40;99.90
52159;DHT22;38145;53.182;6.284;2023-04-09T02:02:23;8.40;99.90
52159;DHT22;38145;53.182;6.284;2023-04-09T02:04:52;8.40;99.90
52159;DHT22;38145;53.182;6.284;2023-04-09T02:07:32;8.40;99.90
52159;DHT22;38145;53.182;6.284;2023-04-09T02:10:01;8.40;99.90
52159;DHT22;38145;53.182;6.284;2023-04-09T02:12:30;8.40;99.90
52159;DHT22;38145;53.182;6.284;2023-04-09T02:15:00;8.30;99.90
52159;DHT22;38145;53.182;6.284;2023-04-09T02:17:28;8.30;99.90
52159;DHT22;38145;53.182;6.284;2023-04-09T02:19:57;8.30;99.90
52159;DHT22;38145;53.182;6.284;2023-04-09T02:22:28;8.30;99.90
52159;DHT22;38145;53.182;6.284;2023-04-09T02:24:56;8.30;99.90
52159;DHT22;38145;53.182;6.284;2023-04-09T02:27:25;8.30;99.90
52159;DHT22;38145;53.182;6.284;2023-04-09T02:29:53;8.30;99.90
52159;DHT22;38145;53.182;6.284;2023-04-09T02:32:19;8.30;99.90
52159;DHT22;38145;53.182;6.284;2023-04-09T02:34:46;8.30;99.90
52159;DHT22;38145;53.182;6.284;2023-04-09T02:37:16;8.30;99.90
52159;DHT22;38145;53.182;6.284;2023-04-09T02:39:43;8.20;99.90
52159;DHT22;38145;53.182;6.284;2023-04-09T02:42:09;8.20;99.90
52159;DHT22;38145;53.182;6.284;2023-04-09T02:44:36;8.20;99.90
52159;DHT22;38145;53.182;6.284;2023-04-09T02:47:03;8.20;99.90
52159;DHT22;38145;53.182;6.284;2023-04-09T02:49:31;8.20;99.90
52159;DHT22;38145;53.182;6.284;2023-04-09T02:51:57;8.20;99.90
52159;DHT22;38145;53.182;6.284;2023-04-09T02:54:24;8.20;99.90
52159;DHT22;38145;53.182;6.284;2023-04-09T02:56:51;8.10;99.90
52159;DHT22;38145;53.182;6.284;2023-04-09T02:59:19;8.10;99.90
52159;DHT22;38145;53.182;6.284;2023-04-09T03:01:46;8.10;99.90
52159;DHT22;38145;53.182;6.284;2023-04-09T03:04:20;8.10;99.90
52159;DHT22;38145;53.182;6.284;2023-04-09T03:06:46;8.00;99.90
52159;DHT22;38145;53.182;6.284;2023-04-09T03:09:16;7.90;99.90
52159;DHT22;38145;53.182;6.284;2023-04-09T03:11:48;8.00;99.90
52159;DHT22;38145;53.182;6.284;2023-04-09T03:16:49;7.90;99.90
52159;DHT22;38145;53.182;6.284;2023-04-09T03:19:21;7.80;99.90
52159;DHT22;38145;53.182;6.284;2023-04-09T03:21:51;7.80;99.90
52159;DHT22;38145;53.182;6.284;2023-04-09T03:24:21;7.80;99.90
52159;DHT22;38145;53.182;6.284;2023-04-09T03:26:57;7.80;99.90
52159;DHT22;38145;53.182;6.284;2023-04-09T03:29:30;7.70;99.90
52159;DHT22;38145;53.182;6.284;2023-04-09T03:31:57;7.70;99.90
52159;DHT22;38145;53.182;6.284;2023-04-09T03:34:30;7.80;99.90
52159;DHT22;38145;53.182;6.284;2023-04-09T03:36:59;7.70;99.90
52159;DHT22;38145;53.182;6.284;2023-04-09T03:39:25;7.70;99.90
52159;DHT22;38145;53.182;6.284;2023-04-09T03:41:57;7.70;99.90
52159;DHT22;38145;53.182;6.284;2023-04-09T03:44:25;7.70;99.90
52159;DHT22;38145;53.182;6.284;2023-04-09T03:47:05;7.70;99.90
52159;DHT22;38145;53.182;6.284;2023-04-09T03:49:34;7.80;99.90
52159;DHT22;38145;53.182;6.284;2023-04-09T03:52:09;7.70;99.90
52159;DHT22;38145;53.182;6.284;2023-04-09T03:54:41;7.80;99.90
52159;DHT22;38145;53.182;6.284;2023-04-09T03:57:09;7.70;99.90
52159;DHT22;38145;53.182;6.284;2023-04-09T03:59:39;7.70;99.90
52159;DHT22;38145;53.182;6.284;2023-04-09T04:02:10;7.70;99.90
52159;DHT22;38145;53.182;6.284;2023-04-09T04:04:39;7.80;99.90
52159;DHT22;38145;53.182;6.284;2023-04-09T04:07:10;7.80;99.90
52159;DHT22;38145;53.182;6.284;2023-04-09T04:09:52;7.70;99.90
52159;DHT22;38145;53.182;6.284;2023-04-09T04:12:20;7.70;99.90
52159;DHT22;38145;53.182;6.284;2023-04-09T04:14:47;7.70;99.90
52159;DHT22;38145;53.182;6.284;2023-04-09T04:17:15;7.70;99.90
52159;DHT22;38145;53.182;6.284;2023-04-09T04:19:43;7.80;99.90
52159;DHT22;38145;53.182;6.284;2023-04-09T04:22:12;7.70;99.90
52159;DHT22;38145;53.182;6.284;2023-04-09T04:24:43;7.70;99.90
52159;DHT22;38145;53.182;6.284;2023-04-09T04:27:10;7.70;99.90
52159;DHT22;38145;53.182;6.284;2023-04-09T04:29:39;7.80;99.90
52159;DHT22;38145;53.182;6.284;2023-04-09T04:32:10;7.70;99.90
52159;DHT22;38145;53.182;6.284;2023-04-09T04:34:40;7.80;99.90
52159;DHT22;38145;53.182;6.284;2023-04-09T04:37:09;7.70;99.90
52159;DHT22;38145;53.182;6.284;2023-04-09T04:39:36;7.70;99.90
52159;DHT22;38145;53.182;6.284;2023-04-09T04:42:07;7.80;99.90
52159;DHT22;38145;53.182;6.284;2023-04-09T04:44:34;7.80;99.90
52159;DHT22;38145;53.182;6.284;2023-04-09T04:47:01;7.80;99.90
52159;DHT22;38145;53.182;6.284;2023-04-09T04:49:37;7.80;99.90
52159;DHT22;38145;53.182;6.284;2023-04-09T04:52:07;7.80;99.90
52159;DHT22;38145;53.182;6.284;2023-04-09T04:54:39;7.80;99.90
52159;DHT22;38145;53.182;6.284;2023-04-09T04:57:07;7.80;99.90
52159;DHT22;38145;53.182;6.284;2023-04-09T04:59:36;7.70;99.90
52159;DHT22;38145;53.182;6.284;2023-04-09T05:02:03;7.80;99.90
52159;DHT22;38145;53.182;6.284;2023-04-09T05:04:30;7.80;99.90
52159;DHT22;38145;53.182;6.284;2023-04-09T05:06:57;7.80;99.90
52159;DHT22;38145;53.182;6.284;2023-04-09T05:09:41;7.70;99.90
52159;DHT22;38145;53.182;6.284;2023-04-09T05:12:13;7.70;99.90
52159;DHT22;38145;53.182;6.284;2023-04-09T05:14:41;7.80;99.90
52159;DHT22;38145;53.182;6.284;2023-04-09T05:17:10;7.70;99.90
52159;DHT22;38145;53.182;6.284;2023-04-09T05:19:39;7.80;99.90
52159;DHT22;38145;53.182;6.284;2023-04-09T05:22:09;7.80;99.90
52159;DHT22;38145;53.182;6.284;2023-04-09T05:24:35;7.70;99.90
52159;DHT22;38145;53.182;6.284;2023-04-09T05:27:01;7.70;99.90
52159;DHT22;38145;53.182;6.284;2023-04-09T05:29:32;7.80;99.90
52159;DHT22;38145;53.182;6.284;2023-04-09T05:32:06;7.80;99.90
52159;DHT22;38145;53.182;6.284;2023-04-09T05:34:39;7.80;99.90
52159;DHT22;38145;53.182;6.284;2023-04-09T05:37:12;7.90;99.90
52159;DHT22;38145;53.182;6.284;2023-04-09T05:39:47;7.80;99.90
52159;DHT22;38145;53.182;6.284;2023-04-09T05:42:22;7.80;99.90
52159;DHT22;38145;53.182;6.284;2023-04-09T05:44:49;7.80;99.90
52159;DHT22;38145;53.182;6.284;2023-04-09T05:47:15;7.80;99.90
52159;DHT22;38145;53.182;6.284;2023-04-09T05:49:43;7.80;99.90
52159;DHT22;38145;53.182;6.284;2023-04-09T05:52:11;7.80;99.90
52159;DHT22;38145;53.182;6.284;2023-04-09T05:54:37;7.80;99.90
52159;DHT22;38145;53.182;6.284;2023-04-09T05:57:05;7.80;99.90
52159;DHT22;38145;53.182;6.284;2023-04-09T05:59:34;7.90;99.90
52159;DHT22;38145;53.182;6.284;2023-04-09T06:02:03;7.80;99.90
52159;DHT22;38145;53.182;6.284;2023-04-09T06:04:29;7.90;99.90
52159;DHT22;38145;53.182;6.284;2023-04-09T06:06:59;7.80;99.90
52159;DHT22;38145;53.182;6.284;2023-04-09T06:09:27;7.80;99.90
52159;DHT22;38145;53.182;6.284;2023-04-09T06:11:56;7.80;99.90
52159;DHT22;38145;53.182;6.284;2023-04-09T06:14:24;7.80;99.90
52159;DHT22;38145;53.182;6.284;2023-04-09T06:16:52;7.80;99.90
52159;DHT22;38145;53.182;6.284;2023-04-09T06:19:18;7.80;99.90
52159;DHT22;38145;53.182;6.284;2023-04-09T06:21:46;7.80;99.90
52159;DHT22;38145;53.182;6.284;2023-04-09T06:24:13;7.80;99.90
52159;DHT22;38145;53.182;6.284;2023-04-09T06:26:43;7.80;99.90
52159;DHT22;38145;53.182;6.284;2023-04-09T06:29:09;7.80;99.90
52159;DHT22;38145;53.182;6.284;2023-04-09T06:31:36;7.90;99.90
52159;DHT22;38145;53.182;6.284;2023-04-09T06:34:07;7.80;99.90
52159;DHT22;38145;53.182;6.284;2023-04-09T06:36:36;7.80;99.90
52159;DHT22;38145;53.182;6.284;2023-04-09T06:39:05;7.90;99.90
52159;DHT22;38145;53.182;6.284;2023-04-09T06:41:32;7.90;99.90
52159;DHT22;38145;53.182;6.284;2023-04-09T06:43:59;7.90;99.90
52159;DHT22;38145;53.182;6.284;2023-04-09T06:46:26;7.90;99.90
52159;DHT22;38145;53.182;6.284;2023-04-09T06:48:55;7.90;99.90
52159;DHT22;38145;53.182;6.284;2023-04-09T06:51:23;7.90;99.90
52159;DHT22;38145;53.182;6.284;2023-04-09T06:53:49;8.00;99.90
52159;DHT22;38145;53.182;6.284;2023-04-09T06:56:21;8.00;99.90
52159;DHT22;38145;53.182;6.284;2023-04-09T06:58:53;8.00;99.90
52159;DHT22;38145;53.182;6.284;2023-04-09T07:01:20;8.00;99.90
52159;DHT22;38145;53.182;6.284;2023-04-09T07:03:51;8.00;99.90
52159;DHT22;38145;53.182;6.284;2023-04-09T07:06:17;8.00;99.90
52159;DHT22;38145;53.182;6.284;2023-04-09T07:08:45;8.10;99.90
52159;DHT22;38145;53.182;6.284;2023-04-09T07:11:11;8.00;99.90
52159;DHT22;38145;53.182;6.284;2023-04-09T07:13:41;8.00;99.90
52159;DHT22;38145;53.182;6.284;2023-04-09T07:16:15;8.00;99.90
52159;DHT22;38145;53.182;6.284;2023-04-09T07:18:42;8.10;99.90
52159;DHT22;38145;53.182;6.284;2023-04-09T07:21:10;8.00;99.90
52159;DHT22;38145;53.182;6.284;2023-04-09T07:23:36;8.10;99.90
52159;DHT22;38145;53.182;6.284;2023-04-09T07:26:04;8.10;1.00
52159;DHT22;38145;53.182;6.284;2023-04-09T07:28:31;8.10;29.70
52159;DHT22;38145;53.182;6.284;2023-04-09T07:31:00;8.10;70.90
52159;DHT22;38145;53.182;6.284;2023-04-09T07:33:28;8.10;99.90
52159;DHT22;38145;53.182;6.284;2023-04-09T07:35:55;8.20;99.90
52159;DHT22;38145;53.182;6.284;2023-04-09T07:38:27;8.20;99.90
52159;DHT22;38145;53.182;6.284;2023-04-09T07:41:00;8.20;99.90
52159;DHT22;38145;53.182;6.284;2023-04-09T07:43:26;8.20;90.80
52159;DHT22;38145;53.182;6.284;2023-04-09T07:45:53;8.20;96.10
52159;DHT22;38145;53.182;6.284;2023-04-09T07:48:19;8.20;90.10
52159;DHT22;38145;53.182;6.284;2023-04-09T07:50:45;8.20;74.60
52159;DHT22;38145;53.182;6.284;2023-04-09T07:53:18;8.30;98.00
52159;DHT22;38145;53.182;6.284;2023-04-09T07:55:44;8.30;99.90
52159;DHT22;38145;53.182;6.284;2023-04-09T07:58:11;8.30;99.90
52159;DHT22;38145;53.182;6.284;2023-04-09T08:00:37;8.30;99.90
52159;DHT22;38145;53.182;6.284;2023-04-09T08:03:04;8.30;99.90
52159;DHT22;38145;53.182;6.284;2023-04-09T08:05:30;8.30;99.90
52159;DHT22;38145;53.182;6.284;2023-04-09T08:08:06;8.40;99.90
52159;DHT22;38145;53.182;6.284;2023-04-09T08:10:34;8.40;99.90
52159;DHT22;38145;53.182;6.284;2023-04-09T08:13:01;8.40;99.90
52159;DHT22;38145;53.182;6.284;2023-04-09T08:15:27;8.40;60.00
52159;DHT22;38145;53.182;6.284;2023-04-09T08:17:55;8.50;88.30
52159;DHT22;38145;53.182;6.284;2023-04-09T08:20:21;8.50;21.90
52159;DHT22;38145;53.182;6.284;2023-04-09T08:22:48;8.60;29.20
52159;DHT22;38145;53.182;6.284;2023-04-09T08:25:14;8.60;38.00
52159;DHT22;38145;53.182;6.284;2023-04-09T08:27:44;8.60;5.40
52159;DHT22;38145;53.182;6.284;2023-04-09T08:30:16;8.70;1.00
52159;DHT22;38145;53.182;6.284;2023-04-09T08:32:44;8.70;9.30
52159;DHT22;38145;53.182;6.284;2023-04-09T08:35:15;8.70;1.00
52159;DHT22;38145;53.182;6.284;2023-04-09T08:37:42;8.80;1.00
52159;DHT22;38145;53.182;6.284;2023-04-09T08:40:09;8.80;1.00
52159;DHT22;38145;53.182;6.284;2023-04-09T08:42:38;8.80;1.00
52159;DHT22;38145;53.182;6.284;2023-04-09T08:45:07;8.80;99.90
52159;DHT22;38145;53.182;6.284;2023-04-09T08:47:37;8.90;1.00
52159;DHT22;38145;53.182;6.284;2023-04-09T08:50:04;8.90;1.00
52159;DHT22;38145;53.182;6.284;2023-04-09T08:52:32;8.90;1.00
52159;DHT22;38145;53.182;6.284;2023-04-09T08:54:59;9.00;1.00
52159;DHT22;38145;53.182;6.284;2023-04-09T08:57:26;8.90;99.90
52159;DHT22;38145;53.182;6.284;2023-04-09T08:59:52;9.00;1.00
52159;DHT22;38145;53.182;6.284;2023-04-09T09:02:19;9.00;1.00
52159;DHT22;38145;53.182;6.284;2023-04-09T09:04:50;9.00;1.00
52159;DHT22;38145;53.182;6.284;2023-04-09T09:07:18;9.10;1.00
52159;DHT22;38145;53.182;6.284;2023-04-09T09:10:00;9.10;1.00
52159;DHT22;38145;53.182;6.284;2023-04-09T09:12:38;9.10;99.90
52159;DHT22;38145;53.182;6.284;2023-04-09T09:15:26;9.10;1.00
52159;DHT22;38145;53.182;6.284;2023-04-09T09:17:56;9.20;99.90
52159;DHT22;38145;53.182;6.284;2023-04-09T09:20:27;9.20;1.00
52159;DHT22;38145;53.182;6.284;2023-04-09T09:22:55;9.30;1.00
52159;DHT22;38145;53.182;6.284;2023-04-09T09:25:22;9.30;1.00
52159;DHT22;38145;53.182;6.284;2023-04-09T09:28:07;9.40;1.00
52159;DHT22;38145;53.182;6.284;2023-04-09T09:30:34;9.40;99.90
52159;DHT22;38145;53.182;6.284;2023-04-09T09:33:06;9.40;99.90
52159;DHT22;38145;53.182;6.284;2023-04-09T09:35:50;9.50;99.90
52159;DHT22;38145;53.182;6.284;2023-04-09T09:38:19;9.50;99.90
52159;DHT22;38145;53.182;6.284;2023-04-09T09:40:47;9.50;99.90
52159;DHT22;38145;53.182;6.284;2023-04-09T09:43:14;9.50;99.90
52159;DHT22;38145;53.182;6.284;2023-04-09T09:45:40;9.50;99.90
52159;DHT22;38145;53.182;6.284;2023-04-09T09:48:10;9.60;99.90
52159;DHT22;38145;53.182;6.284;2023-04-09T09:50:40;9.60;99.90
52159;DHT22;38145;53.182;6.284;2023-04-09T09:53:11;9.60;99.90
52159;DHT22;38145;53.182;6.284;2023-04-09T09:55:48;9.70;99.90
52159;DHT22;38145;53.182;6.284;2023-04-09T09:58:26;9.80;99.90
52159;DHT22;38145;53.182;6.284;2023-04-09T10:00:55;9.80;99.90
52159;DHT22;38145;53.182;6.284;2023-04-09T10:03:26;9.80;99.90
52159;DHT22;38145;53.182;6.284;2023-04-09T10:05:54;9.90;99.90
52159;DHT22;38145;53.182;6.284;2023-04-09T10:08:22;9.90;99.90
52159;DHT22;38145;53.182;6.284;2023-04-09T10:10:51;10.00;99.90
52159;DHT22;38145;53.182;6.284;2023-04-09T10:13:23;10.10;99.90
52159;DHT22;38145;53.182;6.284;2023-04-09T10:15:55;10.20;99.90
52159;DHT22;38145;53.182;6.284;2023-04-09T10:18:22;10.30;99.90
52159;DHT22;38145;53.182;6.284;2023-04-09T10:20:55;10.30;1.00
52159;DHT22;38145;53.182;6.284;2023-04-09T10:26:00;10.50;99.90
52159;DHT22;38145;53.182;6.284;2023-04-09T10:28:29;10.60;99.90
52159;DHT22;38145;53.182;6.284;2023-04-09T10:30:57;10.70;99.90
52159;DHT22;38145;53.182;6.284;2023-04-09T10:33:25;10.80;95.00
52159;DHT22;38145;53.182;6.284;2023-04-09T10:36:01;10.80;99.90
52159;DHT22;38145;53.182;6.284;2023-04-09T10:38:49;11.00;96.60
52159;DHT22;38145;53.182;6.284;2023-04-09T10:41:26;11.30;1.00
52159;DHT22;38145;53.182;6.284;2023-04-09T10:43:53;11.50;1.00
52159;DHT22;38145;53.182;6.284;2023-04-09T10:46:26;11.60;99.90
52159;DHT22;38145;53.182;6.284;2023-04-09T10:49:08;11.80;99.90
52159;DHT22;38145;53.182;6.284;2023-04-09T10:51:38;12.00;1.00
52159;DHT22;38145;53.182;6.284;2023-04-09T10:59:36;12.90;99.90
52159;DHT22;38145;53.182;6.284;2023-04-09T11:05:06;13.10;99.90
52159;DHT22;38145;53.182;6.284;2023-04-09T11:07:43;13.60;16.10
52159;DHT22;38145;53.182;6.284;2023-04-09T11:10:14;13.80;99.90
52159;DHT22;38145;53.182;6.284;2023-04-09T11:12:42;14.00;99.90
52159;DHT22;38145;53.182;6.284;2023-04-09T11:15:19;14.30;42.20
52159;DHT22;38145;53.182;6.284;2023-04-09T11:17:48;14.40;99.90
52159;DHT22;38145;53.182;6.284;2023-04-09T11:20:21;14.40;99.90
52159;DHT22;38145;53.182;6.284;2023-04-09T11:22:49;14.60;99.90
52159;DHT22;38145;53.182;6.284;2023-04-09T11:25:23;14.50;99.90
52159;DHT22;38145;53.182;6.284;2023-04-09T11:27:50;14.50;99.90
52159;DHT22;38145;53.182;6.284;2023-04-09T11:30:17;14.50;99.90
52159;DHT22;38145;53.182;6.284;2023-04-09T11:32:46;14.60;99.90
52159;DHT22;38145;53.182;6.284;2023-04-09T11:35:16;14.50;99.90
52159;DHT22;38145;53.182;6.284;2023-04-09T11:37:45;14.50;99.90
52159;DHT22;38145;53.182;6.284;2023-04-09T11:40:21;14.40;1.00
52159;DHT22;38145;53.182;6.284;2023-04-09T11:42:51;14.70;64.80
52159;DHT22;38145;53.182;6.284;2023-04-09T11:45:23;14.70;1.00
52159;DHT22;38145;53.182;6.284;2023-04-09T11:47:54;14.60;1.00
52159;DHT22;38145;53.182;6.284;2023-04-09T11:50:21;14.50;1.00
52159;DHT22;38145;53.182;6.284;2023-04-09T11:52:49;14.60;99.90
52159;DHT22;38145;53.182;6.284;2023-04-09T11:55:29;14.80;55.50
52159;DHT22;38145;53.182;6.284;2023-04-09T11:57:59;14.70;1.00
52159;DHT22;38145;53.182;6.284;2023-04-09T12:00:28;14.80;1.00
52159;DHT22;38145;53.182;6.284;2023-04-09T12:03:04;14.80;1.00
52159;DHT22;38145;53.182;6.284;2023-04-09T12:05:33;14.50;1.00
52159;DHT22;38145;53.182;6.284;2023-04-09T12:08:03;14.60;54.40
52159;DHT22;38145;53.182;6.284;2023-04-09T12:10:34;14.80;1.00
52159;DHT22;38145;53.182;6.284;2023-04-09T12:13:09;15.00;1.00
52159;DHT22;38145;53.182;6.284;2023-04-09T12:15:38;15.10;1.00
52159;DHT22;38145;53.182;6.284;2023-04-09T12:18:13;15.30;99.90
52159;DHT22;38145;53.182;6.284;2023-04-09T12:20:41;15.50;99.90
52159;DHT22;38145;53.182;6.284;2023-04-09T12:23:11;15.40;99.90
52159;DHT22;38145;53.182;6.284;2023-04-09T12:25:41;15.30;99.90
52159;DHT22;38145;53.182;6.284;2023-04-09T12:28:10;15.10;99.90
52159;DHT22;38145;53.182;6.284;2023-04-09T12:30:41;14.80;99.90
52159;DHT22;38145;53.182;6.284;2023-04-09T12:33:11;14.70;99.90
52159;DHT22;38145;53.182;6.284;2023-04-09T12:35:41;14.60;99.90
52159;DHT22;38145;53.182;6.284;2023-04-09T12:38:08;14.50;99.90
52159;DHT22;38145;53.182;6.284;2023-04-09T12:40:39;14.70;99.90
52159;DHT22;38145;53.182;6.284;2023-04-09T12:43:06;14.90;99.90
52159;DHT22;38145;53.182;6.284;2023-04-09T12:45:34;15.00;92.20
52159;DHT22;38145;53.182;6.284;2023-04-09T12:48:00;15.30;99.90
52159;DHT22;38145;53.182;6.284;2023-04-09T12:50:27;15.50;99.90
52159;DHT22;38145;53.182;6.284;2023-04-09T12:52:54;15.60;99.90
52159;DHT22;38145;53.182;6.284;2023-04-09T12:55:20;15.80;70.80
52159;DHT22;38145;53.182;6.284;2023-04-09T12:57:49;15.80;1.00
52159;DHT22;38145;53.182;6.284;2023-04-09T13:00:16;15.90;1.00
52159;DHT22;38145;53.182;6.284;2023-04-09T13:02:42;16.00;1.00
52159;DHT22;38145;53.182;6.284;2023-04-09T13:05:10;16.00;1.00
52159;DHT22;38145;53.182;6.284;2023-04-09T13:07:37;16.00;1.00
52159;DHT22;38145;53.182;6.284;2023-04-09T13:10:04;16.20;1.00
52159;DHT22;38145;53.182;6.284;2023-04-09T13:12:32;16.10;99.90
52159;DHT22;38145;53.182;6.284;2023-04-09T13:14:59;16.10;99.90
52159;DHT22;38145;53.182;6.284;2023-04-09T13:17:26;16.00;99.90
52159;DHT22;38145;53.182;6.284;2023-04-09T13:19:58;16.00;99.90
52159;DHT22;38145;53.182;6.284;2023-04-09T13:22:25;16.00;99.90
52159;DHT22;38145;53.182;6.284;2023-04-09T13:24:52;16.00;99.90
52159;DHT22;38145;53.182;6.284;2023-04-09T13:27:19;15.90;99.90
52159;DHT22;38145;53.182;6.284;2023-04-09T13:29:47;15.70;99.90
52159;DHT22;38145;53.182;6.284;2023-04-09T13:32:13;15.70;99.90
52159;DHT22;38145;53.182;6.284;2023-04-09T13:34:40;15.80;99.90
52159;DHT22;38145;53.182;6.284;2023-04-09T13:37:08;15.70;83.80
52159;DHT22;38145;53.182;6.284;2023-04-09T13:39:35;15.70;99.90
52159;DHT22;38145;53.182;6.284;2023-04-09T13:42:01;15.60;73.90
52159;DHT22;38145;53.182;6.284;2023-04-09T13:44:28;15.60;81.70
52159;DHT22;38145;53.182;6.284;2023-04-09T13:46:56;15.60;99.90
52159;DHT22;38145;53.182;6.284;2023-04-09T13:49:23;15.60;88.60
52159;DHT22;38145;53.182;6.284;2023-04-09T13:51:52;15.70;23.40
52159;DHT22;38145;53.182;6.284;2023-04-09T13:54:20;15.60;1.00
52159;DHT22;38145;53.182;6.284;2023-04-09T13:56:47;15.50;99.90
52159;DHT22;38145;53.182;6.284;2023-04-09T13:59:16;15.40;81.00
52159;DHT22;38145;53.182;6.284;2023-04-09T14:01:45;15.40;99.90
52159;DHT22;38145;53.182;6.284;2023-04-09T14:04:12;15.30;1.00
52159;DHT22;38145;53.182;6.284;2023-04-09T14:06:40;15.30;1.00
52159;DHT22;38145;53.182;6.284;2023-04-09T14:09:07;15.30;99.90
52159;DHT22;38145;53.182;6.284;2023-04-09T14:11:36;15.30;99.90
52159;DHT22;38145;53.182;6.284;2023-04-09T14:14:02;15.20;99.90
52159;DHT22;38145;53.182;6.284;2023-04-09T14:16:40;15.20;1.00
52159;DHT22;38145;53.182;6.284;2023-04-09T14:19:27;15.20;99.90
52159;DHT22;38145;53.182;6.284;2023-04-09T14:21:55;15.30;99.90
52159;DHT22;38145;53.182;6.284;2023-04-09T14:24:24;15.30;99.90
52159;DHT22;38145;53.182;6.284;2023-04-09T14:26:58;15.30;99.90
52159;DHT22;38145;53.182;6.284;2023-04-09T14:29:25;15.40;99.90
52159;DHT22;38145;53.182;6.284;2023-04-09T14:31:51;15.40;99.90
52159;DHT22;38145;53.182;6.284;2023-04-09T14:34:19;15.40;98.20
52159;DHT22;38145;53.182;6.284;2023-04-09T14:36:45;15.40;81.30
52159;DHT22;38145;53.182;6.284;2023-04-09T14:39:14;15.50;99.90
52159;DHT22;38145;53.182;6.284;2023-04-09T14:41:45;15.50;1.00
52159;DHT22;38145;53.182;6.284;2023-04-09T14:44:11;15.50;1.00
52159;DHT22;38145;53.182;6.284;2023-04-09T14:46:39;15.60;1.00
52159;DHT22;38145;53.182;6.284;2023-04-09T14:49:06;15.70;1.00
52159;DHT22;38145;53.182;6.284;2023-04-09T14:51:33;15.70;1.00
52159;DHT22;38145;53.182;6.284;2023-04-09T14:54:00;15.80;1.00
52159;DHT22;38145;53.182;6.284;2023-04-09T14:56:27;15.90;1.00
52159;DHT22;38145;53.182;6.284;2023-04-09T14:58:56;15.90;99.90
52159;DHT22;38145;53.182;6.284;2023-04-09T15:01:23;15.90;99.90
52159;DHT22;38145;53.182;6.284;2023-04-09T15:03:51;16.00;1.00
52159;DHT22;38145;53.182;6.284;2023-04-09T15:06:17;16.00;99.90
52159;DHT22;38145;53.182;6.284;2023-04-09T15:08:44;16.10;99.90
52159;DHT22;38145;53.182;6.284;2023-04-09T15:11:17;16.10;99.90
52159;DHT22;38145;53.182;6.284;2023-04-09T15:13:44;16.10;99.90
52159;DHT22;38145;53.182;6.284;2023-04-09T15:16:19;16.00;99.90
52159;DHT22;38145;53.182;6.284;2023-04-09T15:18:46;15.90;99.90
52159;DHT22;38145;53.182;6.284;2023-04-09T15:21:17;15.90;99.90
52159;DHT22;38145;53.182;6.284;2023-04-09T15:23:44;15.80;99.90
52159;DHT22;38145;53.182;6.284;2023-04-09T15:26:12;15.70;99.90
52159;DHT22;38145;53.182;6.284;2023-04-09T15:28:38;15.60;99.90
52159;DHT22;38145;53.182;6.284;2023-04-09T15:31:06;15.50;99.90
52159;DHT22;38145;53.182;6.284;2023-04-09T15:33:33;15.40;99.90
52159;DHT22;38145;53.182;6.284;2023-04-09T15:36:05;15.50;99.90
52159;DHT22;38145;53.182;6.284;2023-04-09T15:38:32;15.40;99.90
52159;DHT22;38145;53.182;6.284;2023-04-09T15:40:58;15.30;99.90
52159;DHT22;38145;53.182;6.284;2023-04-09T15:43:26;15.30;99.90
52159;DHT22;38145;53.182;6.284;2023-04-09T15:45:53;15.20;99.90
52159;DHT22;38145;53.182;6.284;2023-04-09T15:48:20;15.20;99.90
52159;DHT22;38145;53.182;6.284;2023-04-09T15:50:47;15.20;99.90
52159;DHT22;38145;53.182;6.284;2023-04-09T15:53:14;15.30;99.90
52159;DHT22;38145;53.182;6.284;2023-04-09T15:55:44;15.30;99.90
52159;DHT22;38145;53.182;6.284;2023-04-09T15:58:11;15.30;99.90
52159;DHT22;38145;53.182;6.284;2023-04-09T16:00:38;15.30;99.90
52159;DHT22;38145;53.182;6.284;2023-04-09T16:03:06;15.30;99.90
52159;DHT22;38145;53.182;6.284;2023-04-09T16:05:33;15.20;99.90
52159;DHT22;38145;53.182;6.284;2023-04-09T16:07:59;15.20;99.90
52159;DHT22;38145;53.182;6.284;2023-04-09T16:10:26;15.20;99.90
52159;DHT22;38145;53.182;6.284;2023-04-09T16:12:53;15.20;99.90